Time;durP1;ratioP1;P1;durP2;ratioP2;P2;SDS_P1;SDS_P2;PMS_P1;PMS_P2;Temp;Humidity;BMP_temperature;BMP_pressure;BME280_temperature;BME280_humidity;BME280_pressure;Samples;Min_cycle;Max_cycle;Signal;HPM_P1;HPM_P2
2023/02/06 00:03:41;;;;;;;;;;;;;;;19.47;31.89;97405.91;10414600;28;3149;-51
2023/02/06 00:08:42;;;;;;;;;;;;;;;19.42;31.84;97395.28;10413947;28;2330;-50
2023/02/06 00:13:43;;;;;;;;;;;;;;;19.41;32.05;97406.03;10402114;28;3170;-52
2023/02/06 00:18:43;;;;;;;;;;;;;;;19.39;31.93;97400.97;10422398;28;2712;-54
2023/02/06 00:23:43;;;;;;;;;;;;;;;19.36;31.89;97406.69;10426673;28;3241;-51
2023/02/06 00:28:44;;;;;;;;;;;;;;;19.36;31.83;97426.91;10423821;28;3207;-52
2023/02/06 00:33:44;;;;;;;;;;;;;;;19.34;31.92;97426.34;10421783;28;3253;-53
2023/02/06 00:38:44;;;;;;;;;;;;;;;19.31;31.84;97424.13;10417179;28;2728;-51
2023/02/06 00:43:44;;;;;;;;;;;;;;;19.29;31.73;97434.88;10416490;28;2381;-48
2023/02/06 00:48:45;;;;;;;;;;;;;;;19.27;31.86;97429.03;10415836;28;2692;-53
2023/02/06 00:53:45;;;;;;;;;;;;;;;19.26;31.68;97426.63;10419625;28;2771;-54
2023/02/06 00:58:45;;;;;;;;;;;;;;;19.21;31.86;97424.69;10414077;28;3152;-50
2023/02/06 01:03:45;;;;;;;;;;;;;;;19.20;31.74;97433.59;10424703;28;2268;-51
2023/02/06 01:08:46;;;;;;;;;;;;;;;19.18;31.73;97438.28;10418817;28;3202;-48
2023/02/06 01:13:46;;;;;;;;;;;;;;;19.16;31.72;97440.34;10422024;28;2876;-49
2023/02/06 01:18:46;;;;;;;;;;;;;;;19.15;31.67;97457.13;10417721;28;3175;-51
2023/02/06 01:23:47;;;;;;;;;;;;;;;19.13;31.72;97439.97;10422768;28;2486;-53
2023/02/06 01:28:47;;;;;;;;;;;;;;;19.11;31.67;97428.88;10419856;28;3154;-52
2023/02/06 01:33:48;;;;;;;;;;;;;;;19.08;31.59;97430.09;10424110;28;2805;-54
2023/02/06 01:38:48;;;;;;;;;;;;;;;19.07;31.73;97432.97;10425713;28;3162;-52
2023/02/06 01:44:07;;;;;;;;;;;;;;;19.05;31.63;97430.56;10406728;28;2723;-52
2023/02/06 01:49:07;;;;;;;;;;;;;;;19.02;31.65;97431.00;10422475;28;3178;-53
2023/02/06 01:54:08;;;;;;;;;;;;;;;19.01;31.69;97437.31;10401796;28;2375;-53
2023/02/06 01:59:08;;;;;;;;;;;;;;;18.99;31.59;97425.41;10417536;28;2668;-51
2023/02/06 02:04:10;;;;;;;;;;;;;;;18.96;31.54;97421.38;10421955;28;2781;-49
2023/02/06 02:09:10;;;;;;;;;;;;;;;18.96;31.51;97423.22;10406054;28;2715;-51
2023/02/06 02:14:11;;;;;;;;;;;;;;;18.94;31.74;97412.16;10418051;28;2304;-55
2023/02/06 02:19:11;;;;;;;;;;;;;;;18.89;31.49;97410.19;10401299;28;3106;-48
2023/02/06 02:24:26;;;;;;;;;;;;;;;18.91;31.60;97407.31;10419102;28;3146;-52
2023/02/06 02:29:29;;;;;;;;;;;;;;;18.88;31.48;97423.50;10416925;28;2792;-50
2023/02/06 02:34:51;;;;;;;;;;;;;;;18.85;31.47;97426.59;10417081;28;2712;-52
2023/02/06 02:40:21;;;;;;;;;;;;;;;18.83;31.45;97415.53;10405630;28;2274;-49
2023/02/06 02:45:50;;;;;;;;;;;;;;;18.81;31.53;97392.09;10364407;28;3134;-50
2023/02/06 02:50:51;;;;;;;;;;;;;;;18.80;31.59;97406.25;10411126;28;3177;-52
2023/02/06 02:55:52;;;;;;;;;;;;;;;18.78;31.55;97396.97;10401967;28;3091;-53
2023/02/06 03:00:56;;;;;;;;;;;;;;;18.77;31.48;97396.19;10414352;28;3118;-51
2023/02/06 03:05:59;;;;;;;;;;;;;;;18.75;31.54;97410.56;10399596;28;3286;-51
2023/02/06 03:11:00;;;;;;;;;;;;;;;18.72;31.33;97403.94;10404959;28;2739;-54
2023/02/06 03:16:03;;;;;;;;;;;;;;;18.71;31.55;97415.47;10418455;28;3190;-49
2023/02/06 03:21:03;;;;;;;;;;;;;;;18.70;31.41;97416.47;10412391;28;3129;-49
2023/02/06 03:26:04;;;;;;;;;;;;;;;18.67;31.44;97415.09;10401233;28;3102;-49
2023/02/06 03:31:06;;;;;;;;;;;;;;;18.66;31.49;97423.19;10410493;28;2306;-47
2023/02/06 03:36:07;;;;;;;;;;;;;;;18.64;31.45;97428.69;10414698;28;3100;-51
2023/02/06 03:41:07;;;;;;;;;;;;;;;18.62;31.43;97435.97;10402711;28;2303;-48
2023/02/06 03:46:11;;;;;;;;;;;;;;;18.60;31.40;97435.41;10415498;28;2396;-50
2023/02/06 03:51:18;;;;;;;;;;;;;;;18.60;31.45;97442.47;10413949;28;2711;-52
2023/02/06 03:56:22;;;;;;;;;;;;;;;18.58;31.35;97449.78;10407367;28;2712;-51
2023/02/06 04:01:22;;;;;;;;;;;;;;;18.56;31.42;97443.94;10425427;28;3177;-47
2023/02/06 04:06:23;;;;;;;;;;;;;;;18.54;31.38;97443.34;10433031;28;3161;-52
2023/02/06 04:11:23;;;;;;;;;;;;;;;18.52;31.40;97451.47;10422071;28;2253;-49
2023/02/06 04:16:23;;;;;;;;;;;;;;;18.52;31.44;97440.16;10419628;28;2739;-53
2023/02/06 04:21:23;;;;;;;;;;;;;;;18.49;31.43;97427.44;10426752;28;2281;-52
2023/02/06 04:26:24;;;;;;;;;;;;;;;18.47;31.30;97422.41;10423112;28;3147;-49
2023/02/06 04:31:24;;;;;;;;;;;;;;;18.45;31.30;97419.22;10434758;28;3195;-49
2023/02/06 04:36:24;;;;;;;;;;;;;;;18.44;31.29;97412.34;10416248;28;2802;-51
2023/02/06 04:41:24;;;;;;;;;;;;;;;18.42;31.35;97400.44;10422017;28;2301;-52
2023/02/06 04:46:25;;;;;;;;;;;;;;;18.41;31.34;97396.19;10422611;28;2353;-48
2023/02/06 04:51:25;;;;;;;;;;;;;;;18.38;31.32;97392.19;10415401;28;3159;-51
2023/02/06 04:56:25;;;;;;;;;;;;;;;18.37;31.27;97400.28;10420858;28;2323;-54
2023/02/06 05:01:25;;;;;;;;;;;;;;;18.35;31.34;97416.28;10420892;28;3170;-53
2023/02/06 05:06:27;;;;;;;;;;;;;;;18.35;31.32;97420.72;10418021;28;2714;-48
2023/02/06 05:11:27;;;;;;;;;;;;;;;18.38;31.26;97407.94;10403656;28;3190;-51
2023/02/06 05:16:27;;;;;;;;;;;;;;;18.41;31.13;97409.31;10417564;28;3124;-48
2023/02/06 05:21:27;;;;;;;;;;;;;;;18.45;31.09;97408.72;10420699;28;3207;-52
2023/02/06 05:26:28;;;;;;;;;;;;;;;18.53;30.96;97413.66;10425760;28;2709;-52
2023/02/06 05:31:28;;;;;;;;;;;;;;;18.63;30.74;97398.19;10417363;28;2712;-52
2023/02/06 05:36:28;;;;;;;;;;;;;;;18.74;30.59;97393.19;10420873;28;3096;-54
2023/02/06 05:41:28;;;;;;;;;;;;;;;18.83;30.56;97384.00;10417140;28;2855;-52
2023/02/06 05:46:29;;;;;;;;;;;;;;;18.89;30.58;97376.03;10434114;28;2309;-48
2023/02/06 05:51:29;;;;;;;;;;;;;;;19.01;30.35;97382.13;10440504;28;3178;-51
2023/02/06 05:56:29;;;;;;;;;;;;;;;19.08;30.31;97390.69;10426561;28;2716;-48
2023/02/06 06:01:30;;;;;;;;;;;;;;;19.14;30.00;97381.94;10425054;28;2290;-48
2023/02/06 06:06:30;;;;;;;;;;;;;;;19.20;30.16;97369.69;10426174;28;2626;-51
2023/02/06 06:11:30;;;;;;;;;;;;;;;19.23;30.03;97372.66;10417753;28;3214;-48
2023/02/06 06:16:31;;;;;;;;;;;;;;;19.27;30.00;97373.81;10416734;28;2758;-54
2023/02/06 06:21:32;;;;;;;;;;;;;;;19.33;30.07;97370.31;10413380;28;2319;-53
2023/02/06 06:26:32;;;;;;;;;;;;;;;19.36;29.99;97379.59;10421820;28;3170;-53
2023/02/06 06:31:33;;;;;;;;;;;;;;;19.40;30.08;97397.31;10410081;28;2276;-49
2023/02/06 06:36:33;;;;;;;;;;;;;;;19.44;29.94;97387.94;10414355;28;3126;-51
2023/02/06 06:41:54;;;;;;;;;;;;;;;19.45;29.93;97379.03;10417235;28;3188;-51
2023/02/06 06:46:54;;;;;;;;;;;;;;;19.45;29.94;97386.91;10413773;28;2692;-51
2023/02/06 06:51:54;;;;;;;;;;;;;;;19.45;29.79;97389.53;10417239;28;2676;-49
2023/02/06 06:56:54;;;;;;;;;;;;;;;19.42;29.91;97392.63;10415818;28;3150;-47
2023/02/06 07:01:55;;;;;;;;;;;;;;;19.39;30.00;97385.19;10409680;28;3143;-51
2023/02/06 07:06:55;;;;;;;;;;;;;;;19.36;29.85;97396.19;10417657;28;2719;-48
2023/02/06 07:11:55;;;;;;;;;;;;;;;19.33;29.91;97396.63;10412703;28;3146;-47
2023/02/06 07:16:55;;;;;;;;;;;;;;;19.31;30.13;97396.00;10413591;28;3181;-49
2023/02/06 07:21:56;;;;;;;;;;;;;;;19.27;30.10;97401.94;10405361;28;2308;-50
2023/02/06 07:26:56;;;;;;;;;;;;;;;19.24;30.22;97397.16;10407333;28;2428;-52
2023/02/06 07:31:56;;;;;;;;;;;;;;;19.21;30.22;97408.91;10408300;28;2326;-52
2023/02/06 07:36:58;;;;;;;;;;;;;;;19.17;30.28;97399.06;10395996;28;2679;-48
2023/02/06 07:41:58;;;;;;;;;;;;;;;19.14;30.50;97404.78;10412377;28;2727;-49
2023/02/06 07:46:59;;;;;;;;;;;;;;;19.11;30.41;97392.06;10414753;28;3110;-52
2023/02/06 07:51:59;;;;;;;;;;;;;;;19.07;30.36;97398.81;10411662;28;2598;-53
2023/02/06 07:56:59;;;;;;;;;;;;;;;19.05;30.36;97408.75;10392932;28;2723;-51
2023/02/06 08:02:00;;;;;;;;;;;;;;;19.02;30.46;97409.97;10416678;28;2743;-49
2023/02/06 08:07:00;;;;;;;;;;;;;;;18.99;30.62;97420.97;10417431;28;2429;-50
2023/02/06 08:12:01;;;;;;;;;;;;;;;18.96;30.66;97424.00;10417848;28;2301;-51
2023/02/06 08:17:01;;;;;;;;;;;;;;;18.93;30.57;97429.72;10421368;28;2693;-48
2023/02/06 08:22:01;;;;;;;;;;;;;;;18.92;30.53;97436.00;10394582;28;2557;-50
2023/02/06 08:27:02;;;;;;;;;;;;;;;18.89;30.62;97436.47;10414767;28;3162;-53
2023/02/06 08:32:02;;;;;;;;;;;;;;;18.87;30.70;97435.06;10419708;28;3241;-52
2023/02/06 08:37:02;;;;;;;;;;;;;;;18.85;30.79;97430.03;10422213;28;3170;-50
2023/02/06 08:42:02;;;;;;;;;;;;;;;18.83;30.82;97426.03;10425560;28;2357;-49
2023/02/06 08:47:03;;;;;;;;;;;;;;;18.82;30.80;97440.16;10425606;28;2794;-50
2023/02/06 08:52:03;;;;;;;;;;;;;;;18.79;30.81;97438.00;10424580;28;2447;-54
2023/02/06 08:57:05;;;;;;;;;;;;;;;18.77;30.92;97440.84;10424382;28;3047;-52
2023/02/06 09:02:05;;;;;;;;;;;;;;;18.77;30.92;97432.16;10420685;28;2293;-50
2023/02/06 09:07:06;;;;;;;;;;;;;;;18.75;30.90;97437.66;10416395;28;2397;-50
2023/02/06 09:12:06;;;;;;;;;;;;;;;18.73;31.03;97439.69;10415543;28;3227;-50
2023/02/06 09:17:06;;;;;;;;;;;;;;;18.73;30.98;97431.81;10417378;28;2692;-51
2023/02/06 09:22:06;;;;;;;;;;;;;;;18.73;31.03;97426.56;10411006;28;2267;-48
2023/02/06 09:27:08;;;;;;;;;;;;;;;18.72;31.09;97438.06;10404108;28;3138;-50
2023/02/06 09:32:08;;;;;;;;;;;;;;;18.70;31.07;97448.00;10418091;28;3202;-51
2023/02/06 09:37:08;;;;;;;;;;;;;;;18.67;31.00;97433.47;10421179;28;2712;-51
2023/02/06 09:42:10;;;;;;;;;;;;;;;18.65;31.08;97432.09;10402374;28;2308;-49
2023/02/06 09:47:19;;;;;;;;;;;;;;;18.62;31.18;97438.59;10404354;28;3161;-52
2023/02/06 09:52:25;;;;;;;;;;;;;;;18.60;31.15;97422.28;10427177;28;3148;-49
2023/02/06 09:57:31;;;;;;;;;;;;;;;18.58;31.16;97424.31;10420093;28;2751;-50
2023/02/06 10:02:50;;;;;;;;;;;;;;;18.58;31.07;97415.63;10423272;28;3106;-48
2023/02/06 10:07:56;;;;;;;;;;;;;;;18.57;31.15;97417.44;10412941;28;2847;-52
2023/02/06 10:13:19;;;;;;;;;;;;;;;18.57;31.21;97406.13;10414758;28;3286;-51
2023/02/06 10:18:28;;;;;;;;;;;;;;;18.57;31.09;97409.56;10395294;28;2321;-49
2023/02/06 10:23:29;;;;;;;;;;;;;;;18.56;31.16;97405.34;10415424;28;2727;-50
2023/02/06 10:28:29;;;;;;;;;;;;;;;18.57;31.12;97388.56;10398335;28;3326;-47
2023/02/06 10:33:29;;;;;;;;;;;;;;;18.54;31.24;97382.94;10395704;28;2736;-48
2023/02/06 10:38:51;;;;;;;;;;;;;;;18.51;31.23;97378.94;10418461;28;2712;-49
2023/02/06 10:43:52;;;;;;;;;;;;;;;18.48;31.14;97357.56;10392865;28;3181;-50
2023/02/06 10:49:04;;;;;;;;;;;;;;;18.45;31.08;97353.56;10391271;28;3389;-48
2023/02/06 10:54:24;;;;;;;;;;;;;;;18.42;31.09;97346.09;10429575;28;2348;-48
2023/02/06 10:59:27;;;;;;;;;;;;;;;18.40;31.17;97342.09;10408634;28;2310;-51
2023/02/06 11:04:34;;;;;;;;;;;;;;;18.34;31.21;97327.25;10399214;28;3142;-50
2023/02/06 11:09:34;;;;;;;;;;;;;;;18.36;31.11;97327.81;10400609;28;3155;-50
2023/02/06 11:14:35;;;;;;;;;;;;;;;18.33;31.09;97308.06;10417604;28;2799;-48
2023/02/06 11:19:43;;;;;;;;;;;;;;;18.32;31.24;97313.53;10420029;28;3091;-51
2023/02/06 11:25:00;;;;;;;;;;;;;;;18.29;31.26;97292.97;10444970;28;2732;-49
2023/02/06 11:30:03;;;;;;;;;;;;;;;18.26;31.19;97293.41;10453266;28;2712;-51
2023/02/06 11:35:04;;;;;;;;;;;;;;;18.25;31.22;97289.19;10492949;28;3288;-49
2023/02/06 11:40:17;;;;;;;;;;;;;;;18.23;31.17;97283.34;10457440;28;3172;-52
2023/02/06 11:45:26;;;;;;;;;;;;;;;18.23;31.21;97278.09;10457083;28;3149;-49
2023/02/06 11:50:32;;;;;;;;;;;;;;;18.21;31.29;97272.28;10448661;28;3240;-53
2023/02/06 11:55:33;;;;;;;;;;;;;;;18.19;31.29;97275.13;10456733;28;2266;-50
2023/02/06 12:00:34;;;;;;;;;;;;;;;18.18;31.23;97260.38;10449014;28;2427;-49
2023/02/06 12:05:37;;;;;;;;;;;;;;;18.15;31.27;97255.59;10444369;28;2729;-51
2023/02/06 12:10:39;;;;;;;;;;;;;;;18.14;31.20;97247.91;10471372;28;3292;-52
2023/02/06 12:15:41;;;;;;;;;;;;;;;18.12;31.29;97249.97;10457317;28;2760;-50
2023/02/06 12:21:03;;;;;;;;;;;;;;;18.12;31.28;97253.41;10466531;28;2733;-47
2023/02/06 12:26:07;;;;;;;;;;;;;;;18.09;31.25;97274.84;10439093;28;2275;-50
2023/02/06 12:31:09;;;;;;;;;;;;;;;18.07;31.25;97262.97;10433230;28;3178;-51
2023/02/06 12:36:14;;;;;;;;;;;;;;;18.06;31.20;97253.47;10412264;28;2257;-53
2023/02/06 12:41:14;;;;;;;;;;;;;;;18.07;31.12;97239.34;10416405;28;3182;-49
2023/02/06 12:46:16;;;;;;;;;;;;;;;18.06;31.20;97225.41;10415191;28;3124;-46
2023/02/06 12:51:18;;;;;;;;;;;;;;;18.06;31.13;97208.88;10410219;28;3207;-47
2023/02/06 12:56:21;;;;;;;;;;;;;;;18.04;31.08;97193.34;10416062;28;3234;-47
2023/02/06 13:01:21;;;;;;;;;;;;;;;18.05;31.13;97200.22;10426092;28;2739;-49
2023/02/06 13:06:23;;;;;;;;;;;;;;;18.05;31.07;97197.59;10426549;28;2359;-50
2023/02/06 13:11:26;;;;;;;;;;;;;;;18.07;31.03;97197.38;10425149;28;3080;-49
2023/02/06 13:16:41;;;;;;;;;;;;;;;18.09;31.05;97197.94;10434658;28;2704;-48
2023/02/06 13:21:41;;;;;;;;;;;;;;;18.07;31.08;97205.25;10414984;28;2361;-52
2023/02/06 13:26:41;;;;;;;;;;;;;;;18.08;30.90;97212.06;10408318;28;2817;-48
2023/02/06 13:31:42;;;;;;;;;;;;;;;18.10;30.95;97220.53;10421036;28;2715;-49
2023/02/06 13:36:43;;;;;;;;;;;;;;;18.10;30.98;97231.03;10416476;28;2680;-50
2023/02/06 13:41:44;;;;;;;;;;;;;;;18.11;30.93;97237.88;10423974;28;2739;-50
2023/02/06 13:46:55;;;;;;;;;;;;;;;18.12;30.82;97232.41;10429437;28;2735;-51
2023/02/06 13:52:04;;;;;;;;;;;;;;;18.12;30.80;97232.41;10413015;28;3219;-50
2023/02/06 13:57:14;;;;;;;;;;;;;;;18.13;30.84;97225.34;10401768;28;2351;-52
2023/02/06 14:02:22;;;;;;;;;;;;;;;18.14;30.69;97221.69;10410556;28;3130;-53
2023/02/06 14:07:40;;;;;;;;;;;;;;;18.15;30.68;97225.91;10403519;28;2684;-51
2023/02/06 14:12:56;;;;;;;;;;;;;;;18.15;30.69;97212.81;10410217;28;3007;-47
2023/02/06 14:17:56;;;;;;;;;;;;;;;18.16;30.64;97198.63;10395827;28;2422;-51
2023/02/06 14:22:56;;;;;;;;;;;;;;;18.18;30.71;97204.47;10417379;28;2331;-49
2023/02/06 14:28:26;;;;;;;;;;;;;;;18.17;30.62;97208.13;10415832;28;2810;-49
2023/02/06 14:33:50;;;;;;;;;;;;;;;18.17;30.55;97206.31;10401776;28;3299;-50
2023/02/06 14:39:07;;;;;;;;;;;;;;;18.19;30.59;97182.47;10393045;28;2731;-49
2023/02/06 14:44:08;;;;;;;;;;;;;;;18.24;30.60;97185.19;10417350;28;2785;-51
2023/02/06 14:49:12;;;;;;;;;;;;;;;18.29;30.59;97187.97;10411933;28;2349;-48
2023/02/06 14:54:26;;;;;;;;;;;;;;;18.36;30.55;97188.69;10417618;28;3242;-49
2023/02/06 14:59:26;;;;;;;;;;;;;;;18.43;30.58;97174.44;10431880;28;3296;-50
2023/02/06 15:04:27;;;;;;;;;;;;;;;18.50;30.47;97180.41;10433780;28;3194;-49
2023/02/06 15:09:34;;;;;;;;;;;;;;;18.57;30.44;97173.22;10426834;28;3285;-52
2023/02/06 15:14:35;;;;;;;;;;;;;;;18.66;30.06;97173.69;10404544;28;2409;-52
2023/02/06 15:19:35;;;;;;;;;;;;;;;18.73;30.02;97179.66;10407931;28;3133;-49
2023/02/06 15:24:38;;;;;;;;;;;;;;;18.78;30.11;97168.44;10416330;28;3539;-51
2023/02/06 15:29:39;;;;;;;;;;;;;;;18.85;30.05;97182.25;10423274;28;2491;-50
2023/02/06 15:34:39;;;;;;;;;;;;;;;18.88;29.88;97185.22;10404970;28;3198;-50
2023/02/06 15:39:39;;;;;;;;;;;;;;;18.94;29.79;97175.66;10412800;28;2281;-49
2023/02/06 15:44:39;;;;;;;;;;;;;;;18.98;29.76;97177.56;10405162;28;3483;-50
2023/02/06 15:49:42;;;;;;;;;;;;;;;19.00;29.69;97162.38;10429929;28;2735;-48
2023/02/06 15:54:44;;;;;;;;;;;;;;;19.03;29.66;97161.94;10402965;28;2784;-51
2023/02/06 15:59:44;;;;;;;;;;;;;;;19.07;29.39;97168.31;10404249;28;3181;-52
2023/02/06 16:04:44;;;;;;;;;;;;;;;19.10;29.34;97170.47;10443963;28;2727;-52
2023/02/06 16:09:55;;;;;;;;;;;;;;;19.13;29.26;97175.28;10403517;28;2676;-51
2023/02/06 16:14:55;;;;;;;;;;;;;;;19.15;29.25;97175.06;10426754;28;3246;-51
2023/02/06 16:19:57;;;;;;;;;;;;;;;19.18;29.10;97182.50;10417168;28;3420;-50
2023/02/06 16:25:20;;;;;;;;;;;;;;;19.17;29.04;97194.03;10422042;28;2720;-53
2023/02/06 16:30:24;;;;;;;;;;;;;;;19.19;29.32;97202.47;10413495;28;2732;-47
2023/02/06 16:35:25;;;;;;;;;;;;;;;19.20;29.23;97207.53;10420333;28;2657;-51
2023/02/06 16:40:25;;;;;;;;;;;;;;;19.22;29.16;97220.44;10418508;28;3124;-49
2023/02/06 16:45:26;;;;;;;;;;;;;;;19.25;29.12;97231.28;10417104;28;2772;-53
2023/02/06 16:50:26;;;;;;;;;;;;;;;19.26;29.01;97243.41;10415603;28;2333;-53
2023/02/06 16:55:28;;;;;;;;;;;;;;;19.28;28.99;97241.34;10419799;28;3159;-49
2023/02/06 17:00:28;;;;;;;;;;;;;;;19.30;28.90;97243.75;10416676;28;2445;-50
2023/02/06 17:05:30;;;;;;;;;;;;;;;19.31;28.92;97245.34;10412496;28;3176;-47
2023/02/06 17:10:30;;;;;;;;;;;;;;;19.32;29.10;97258.28;10418890;28;2737;-50
2023/02/06 17:15:30;;;;;;;;;;;;;;;19.34;28.99;97279.91;10434774;28;2722;-52
2023/02/06 17:20:35;;;;;;;;;;;;;;;19.37;28.79;97282.06;10416137;28;3551;-51
2023/02/06 17:25:36;;;;;;;;;;;;;;;19.39;28.79;97285.25;10418126;28;2720;-50
2023/02/06 17:30:36;;;;;;;;;;;;;;;19.40;28.68;97268.47;10396456;28;2649;-51
2023/02/06 17:35:37;;;;;;;;;;;;;;;19.43;28.66;97273.25;10407467;28;2289;-50
2023/02/06 17:40:38;;;;;;;;;;;;;;;19.43;28.69;97254.06;10436999;28;2696;-52
2023/02/06 17:45:38;;;;;;;;;;;;;;;19.41;28.85;97275.31;10426232;28;3187;-48
2023/02/06 17:50:39;;;;;;;;;;;;;;;19.42;28.75;97276.94;10425702;28;2728;-49
2023/02/06 17:55:40;;;;;;;;;;;;;;;19.40;28.95;97273.72;10417196;28;2449;-53
2023/02/06 18:00:40;;;;;;;;;;;;;;;19.41;28.87;97275.31;10425798;28;3167;-53
2023/02/06 18:05:40;;;;;;;;;;;;;;;19.40;29.01;97276.38;10410428;28;3592;-51
2023/02/06 18:10:40;;;;;;;;;;;;;;;19.40;28.89;97281.63;10423955;28;3119;-48
2023/02/06 18:15:47;;;;;;;;;;;;;;;19.42;28.93;97284.00;10413807;28;3207;-51
2023/02/06 18:20:47;;;;;;;;;;;;;;;19.44;28.92;97284.59;10414240;28;3338;-51
2023/02/06 18:25:47;;;;;;;;;;;;;;;19.42;29.56;97279.56;10411400;28;2447;-51
2023/02/06 18:30:48;;;;;;;;;;;;;;;19.48;29.84;97276.00;10414291;28;2475;-48
2023/02/06 18:35:51;;;;;;;;;;;;;;;19.55;30.16;97262.75;10426675;28;3247;-51
2023/02/06 18:40:51;;;;;;;;;;;;;;;19.61;30.12;97261.00;10414050;28;3305;-48
2023/02/06 18:45:51;;;;;;;;;;;;;;;19.67;30.32;97262.72;10420104;28;2927;-51
2023/02/06 18:50:53;;;;;;;;;;;;;;;19.70;30.32;97262.28;10420166;28;3358;-49
2023/02/06 18:55:57;;;;;;;;;;;;;;;19.75;30.54;97257.09;10421557;28;3126;-54
2023/02/06 19:00:57;;;;;;;;;;;;;;;19.76;30.73;97258.72;10420624;28;2459;-51
2023/02/06 19:05:57;;;;;;;;;;;;;;;19.78;30.51;97257.47;10410237;28;3294;-51
2023/02/06 19:10:58;;;;;;;;;;;;;;;19.82;30.51;97261.22;10410075;28;2852;-49
2023/02/06 19:16:05;;;;;;;;;;;;;;;19.83;30.42;97252.28;10411046;28;2884;-49
2023/02/06 19:21:06;;;;;;;;;;;;;;;19.83;30.44;97262.81;10417697;28;3199;-52
2023/02/06 19:26:07;;;;;;;;;;;;;;;19.84;30.58;97267.06;10411108;28;2451;-49
2023/02/06 19:31:07;;;;;;;;;;;;;;;19.81;29.93;97282.47;10423493;28;3277;-49
2023/02/06 19:36:09;;;;;;;;;;;;;;;19.76;29.73;97275.31;10417759;28;3313;-52
2023/02/06 19:41:10;;;;;;;;;;;;;;;19.73;29.63;97281.03;10414337;28;3238;-53
2023/02/06 19:46:11;;;;;;;;;;;;;;;19.69;29.46;97279.06;10399068;28;3301;-50
2023/02/06 19:51:15;;;;;;;;;;;;;;;19.67;29.47;97266.16;10419056;28;2844;-52
2023/02/06 19:56:19;;;;;;;;;;;;;;;19.64;29.54;97261.34;10413052;28;3307;-48
2023/02/06 20:01:19;;;;;;;;;;;;;;;19.65;29.47;97256.88;10415029;28;3346;-46
2023/02/06 20:06:19;;;;;;;;;;;;;;;19.66;29.62;97258.50;10408376;28;2849;-51
2023/02/06 20:11:20;;;;;;;;;;;;;;;19.67;29.21;97276.69;10408537;28;3303;-51
2023/02/06 20:16:24;;;;;;;;;;;;;;;19.65;29.48;97288.47;10412659;28;2456;-49
2023/02/06 20:21:26;;;;;;;;;;;;;;;19.64;29.36;97278.97;10416675;28;2889;-49
2023/02/06 20:26:27;;;;;;;;;;;;;;;19.64;29.43;97260.56;10404901;28;3241;-47
2023/02/06 20:31:27;;;;;;;;;;;;;;;19.63;29.48;97264.22;10416472;28;2438;-49
2023/02/06 20:36:27;;;;;;;;;;;;;;;19.62;29.31;97299.47;10404973;28;3255;-48
2023/02/06 20:41:29;;;;;;;;;;;;;;;19.60;29.63;97294.41;10414791;28;3332;-47
2023/02/06 20:46:29;;;;;;;;;;;;;;;19.59;29.65;97290.19;10417473;28;2870;-48
2023/02/06 20:51:29;;;;;;;;;;;;;;;19.57;29.52;97288.81;10425340;28;2859;-50
2023/02/06 20:56:30;;;;;;;;;;;;;;;19.52;29.73;97300.00;10421310;28;2407;-54
2023/02/06 21:01:50;;;;;;;;;;;;;;;19.45;29.40;97305.38;10409474;28;3282;-52
2023/02/06 21:07:11;;;;;;;;;;;;;;;19.42;29.18;97312.94;10416091;28;2870;-54
2023/02/06 21:12:31;;;;;;;;;;;;;;;19.37;29.32;97305.72;10416651;28;2426;-54
2023/02/06 21:17:32;;;;;;;;;;;;;;;19.33;29.56;97307.22;10418082;28;2883;-53
2023/02/06 21:22:32;;;;;;;;;;;;;;;19.31;29.43;97318.94;10414780;28;2421;-53
2023/02/06 21:27:32;;;;;;;;;;;;;;;19.26;29.65;97301.25;10407529;28;2400;-49
2023/02/06 21:32:33;;;;;;;;;;;;;;;19.22;29.83;97305.38;10414157;28;2928;-53
2023/02/06 21:37:33;;;;;;;;;;;;;;;19.18;29.88;97300.78;10425485;28;2896;-51
2023/02/06 21:42:33;;;;;;;;;;;;;;;19.13;29.65;97300.66;10430049;28;2419;-52
2023/02/06 21:47:34;;;;;;;;;;;;;;;19.09;29.70;97307.38;10427098;28;2879;-52
2023/02/06 21:52:34;;;;;;;;;;;;;;;19.04;29.75;97309.91;10424543;28;3313;-53
2023/02/06 21:57:34;;;;;;;;;;;;;;;18.99;29.63;97302.69;10431082;28;3352;-50
2023/02/06 22:02:35;;;;;;;;;;;;;;;18.95;29.63;97303.38;10433281;28;2872;-49
2023/02/06 22:07:36;;;;;;;;;;;;;;;18.90;29.60;97290.13;10436080;28;3253;-52
2023/02/06 22:12:36;;;;;;;;;;;;;;;18.86;29.69;97273.19;10437329;28;2871;-53
2023/02/06 22:17:36;;;;;;;;;;;;;;;18.81;29.72;97267.81;10424066;28;2477;-50
2023/02/06 22:22:37;;;;;;;;;;;;;;;18.78;29.62;97263.00;10427408;28;2856;-52
2023/02/06 22:27:37;;;;;;;;;;;;;;;18.73;29.66;97261.06;10406871;28;2891;-52
2023/02/06 22:32:38;;;;;;;;;;;;;;;18.68;29.57;97267.00;10425013;28;3347;-55
2023/02/06 22:37:38;;;;;;;;;;;;;;;18.66;29.51;97244.59;10418425;28;2396;-53
2023/02/06 22:42:38;;;;;;;;;;;;;;;18.61;29.62;97236.59;10419300;28;3277;-51
2023/02/06 22:47:39;;;;;;;;;;;;;;;18.58;29.54;97242.28;10411049;28;3296;-51
2023/02/06 22:57:58;;;;;;;;;;;;;;;18.52;29.50;97274.72;10412115;28;3234;-53
2023/02/06 23:02:58;;;;;;;;;;;;;;;18.47;29.58;97293.75;10416849;28;3320;-55
2023/02/06 23:07:58;;;;;;;;;;;;;;;18.45;29.40;97303.69;10410774;28;2459;-51
2023/02/06 23:12:58;;;;;;;;;;;;;;;18.42;29.55;97313.81;10423487;28;3446;-50
2023/02/06 23:17:59;;;;;;;;;;;;;;;18.37;29.54;97309.22;10414097;28;3382;-54
2023/02/06 23:22:59;;;;;;;;;;;;;;;18.35;29.53;97319.13;10413353;28;3638;-54
2023/02/06 23:27:59;;;;;;;;;;;;;;;18.34;29.54;97322.00;10411807;28;2932;-47
2023/02/06 23:32:59;;;;;;;;;;;;;;;18.30;29.70;97326.84;10416993;28;2879;-52
2023/02/06 23:38:00;;;;;;;;;;;;;;;18.29;29.50;97338.38;10421438;28;2973;-54
2023/02/06 23:43:00;;;;;;;;;;;;;;;18.25;29.58;97334.59;10407686;28;3031;-54
2023/02/06 23:48:00;;;;;;;;;;;;;;;18.23;29.67;97355.03;10410498;28;2454;-53
2023/02/06 23:53:01;;;;;;;;;;;;;;;18.20;29.64;97358.06;10415393;28;2422;-50
2023/02/06 23:58:01;;;;;;;;;;;;;;;18.17;29.67;97347.22;10424231;28;2422;-51
